sensor_id;sensor_type;location;lat;lon;timestamp;pressure;altitude;pressure_sealevel;temperature;humidity
44079;BME280;29744;49.078;12.878;2022-10-16T00:04:28;96443.06;;;16.19;44.46
44079;BME280;29744;49.078;12.878;2022-10-16T00:09:28;96439.56;;;16.19;44.14
44079;BME280;29744;49.078;12.878;2022-10-16T00:14:29;96446.09;;;16.18;44.19
44079;BME280;29744;49.078;12.878;2022-10-16T00:19:29;96453.09;;;16.19;43.93
44079;BME280;29744;49.078;12.878;2022-10-16T00:24:29;96451.19;;;16.19;44.04
44079;BME280;29744;49.078;12.878;2022-10-16T00:29:29;96449.28;;;16.20;44.16
44079;BME280;29744;49.078;12.878;2022-10-16T00:34:30;96446.09;;;16.18;44.13
44079;BME280;29744;49.078;12.878;2022-10-16T00:39:30;96451.53;;;16.18;44.24
44079;BME280;29744;49.078;12.878;2022-10-16T00:44:56;96444.53;;;16.17;44.33
44079;BME280;29744;49.078;12.878;2022-10-16T00:50:22;96442.16;;;16.15;44.28
44079;BME280;29744;49.078;12.878;2022-10-16T00:55:25;96452.66;;;16.17;44.27
44079;BME280;29744;49.078;12.878;2022-10-16T01:00:26;96458.06;;;16.17;44.32
44079;BME280;29744;49.078;12.878;2022-10-16T01:05:33;96459.97;;;16.16;44.28
44079;BME280;29744;49.078;12.878;2022-10-16T01:10:44;96455.34;;;16.17;43.92
44079;BME280;29744;49.078;12.878;2022-10-16T01:21:13;96458.84;;;16.17;44.46
44079;BME280;29744;49.078;12.878;2022-10-16T01:31:24;96462.81;;;16.20;43.91
44079;BME280;29744;49.078;12.878;2022-10-16T01:36:27;96455.56;;;16.12;44.57
44079;BME280;29744;49.078;12.878;2022-10-16T01:41:34;96458.50;;;16.19;44.18
44079;BME280;29744;49.078;12.878;2022-10-16T01:46:39;96455.47;;;16.20;43.85
44079;BME280;29744;49.078;12.878;2022-10-16T01:51:41;96456.59;;;16.19;44.37
44079;BME280;29744;49.078;12.878;2022-10-16T01:56:43;96449.59;;;16.18;44.38
44079;BME280;29744;49.078;12.878;2022-10-16T02:01:49;96466.16;;;16.17;44.26
44079;BME280;29744;49.078;12.878;2022-10-16T02:06:52;96466.97;;;16.17;44.20
44079;BME280;29744;49.078;12.878;2022-10-16T02:11:55;96479.69;;;16.17;44.28
44079;BME280;29744;49.078;12.878;2022-10-16T02:16:57;96470.47;;;16.18;44.35
44079;BME280;29744;49.078;12.878;2022-10-16T02:22:00;96474.63;;;16.15;44.16
44079;BME280;29744;49.078;12.878;2022-10-16T02:27:09;96474.75;;;16.19;44.26
44079;BME280;29744;49.078;12.878;2022-10-16T02:32:10;96482.16;;;16.09;44.63
44079;BME280;29744;49.078;12.878;2022-10-16T02:37:13;96482.41;;;16.17;44.36
44079;BME280;29744;49.078;12.878;2022-10-16T02:42:14;96484.00;;;16.18;44.13
44079;BME280;29744;49.078;12.878;2022-10-16T02:47:15;96489.41;;;16.18;44.46
44079;BME280;29744;49.078;12.878;2022-10-16T02:52:15;96487.47;;;16.18;44.11
44079;BME280;29744;49.078;12.878;2022-10-16T02:57:15;96487.81;;;16.17;44.16
44079;BME280;29744;49.078;12.878;2022-10-16T03:02:16;96482.88;;;16.19;44.11
44079;BME280;29744;49.078;12.878;2022-10-16T03:07:16;96480.94;;;16.19;44.36
44079;BME280;29744;49.078;12.878;2022-10-16T03:12:16;96490.97;;;16.19;44.32
44079;BME280;29744;49.078;12.878;2022-10-16T03:17:17;96492.56;;;16.20;44.20
44079;BME280;29744;49.078;12.878;2022-10-16T03:22:17;96494.28;;;16.24;44.37
44079;BME280;29744;49.078;12.878;2022-10-16T03:27:17;96504.88;;;16.29;44.40
44079;BME280;29744;49.078;12.878;2022-10-16T03:32:18;96506.13;;;16.32;44.12
44079;BME280;29744;49.078;12.878;2022-10-16T03:37:20;96504.69;;;16.34;43.99
44079;BME280;29744;49.078;12.878;2022-10-16T03:42:20;96494.66;;;16.35;43.67
44079;BME280;29744;49.078;12.878;2022-10-16T03:47:20;96501.63;;;16.36;43.71
44079;BME280;29744;49.078;12.878;2022-10-16T03:52:23;96512.13;;;16.37;43.84
44079;BME280;29744;49.078;12.878;2022-10-16T03:57:23;96515.63;;;16.38;43.82
44079;BME280;29744;49.078;12.878;2022-10-16T04:02:24;96518.34;;;16.38;44.07
44079;BME280;29744;49.078;12.878;2022-10-16T04:07:24;96528.03;;;16.39;43.85
44079;BME280;29744;49.078;12.878;2022-10-16T04:12:25;96531.88;;;16.38;43.54
44079;BME280;29744;49.078;12.878;2022-10-16T04:17:26;96521.50;;;16.40;43.89
44079;BME280;29744;49.078;12.878;2022-10-16T04:22:26;96515.00;;;16.41;43.71
44079;BME280;29744;49.078;12.878;2022-10-16T04:27:26;96519.63;;;16.40;44.18
44079;BME280;29744;49.078;12.878;2022-10-16T04:32:27;96512.28;;;16.41;44.01
44079;BME280;29744;49.078;12.878;2022-10-16T04:37:27;96523.91;;;16.41;43.50
44079;BME280;29744;49.078;12.878;2022-10-16T04:42:27;96530.09;;;16.42;43.71
44079;BME280;29744;49.078;12.878;2022-10-16T04:47:28;96539.03;;;16.42;43.74
44079;BME280;29744;49.078;12.878;2022-10-16T04:52:28;96546.34;;;16.42;43.74
44079;BME280;29744;49.078;12.878;2022-10-16T04:57:29;96550.97;;;16.41;43.61
44079;BME280;29744;49.078;12.878;2022-10-16T05:02:29;96559.88;;;16.42;43.72
44079;BME280;29744;49.078;12.878;2022-10-16T05:07:30;96557.19;;;16.42;43.97
44079;BME280;29744;49.078;12.878;2022-10-16T05:12:30;96554.47;;;16.42;43.79
44079;BME280;29744;49.078;12.878;2022-10-16T05:17:31;96564.50;;;16.41;43.65
44079;BME280;29744;49.078;12.878;2022-10-16T05:22:31;96565.28;;;16.42;43.53
44079;BME280;29744;49.078;12.878;2022-10-16T05:27:31;96569.59;;;16.43;43.90
44079;BME280;29744;49.078;12.878;2022-10-16T05:32:31;96557.97;;;16.42;43.58
44079;BME280;29744;49.078;12.878;2022-10-16T05:37:32;96561.47;;;16.43;43.54
44079;BME280;29744;49.078;12.878;2022-10-16T05:42:32;96561.81;;;16.41;43.82
44079;BME280;29744;49.078;12.878;2022-10-16T05:47:32;96569.59;;;16.43;43.88
44079;BME280;29744;49.078;12.878;2022-10-16T05:52:33;96585.81;;;16.43;43.57
44079;BME280;29744;49.078;12.878;2022-10-16T05:57:33;96581.53;;;16.42;43.79
44079;BME280;29744;49.078;12.878;2022-10-16T06:02:33;96591.25;;;16.43;43.58
44079;BME280;29744;49.078;12.878;2022-10-16T06:07:35;96591.25;;;16.43;43.81
44079;BME280;29744;49.078;12.878;2022-10-16T06:12:38;96591.25;;;16.43;43.68
44079;BME280;29744;49.078;12.878;2022-10-16T06:17:38;96604.78;;;16.43;43.74
44079;BME280;29744;49.078;12.878;2022-10-16T06:22:38;96605.91;;;16.42;43.79
44079;BME280;29744;49.078;12.878;2022-10-16T06:27:40;96610.97;;;16.44;43.84
44079;BME280;29744;49.078;12.878;2022-10-16T06:32:43;96621.81;;;16.44;43.86
44079;BME280;29744;49.078;12.878;2022-10-16T06:37:43;96603.66;;;16.44;43.49
44079;BME280;29744;49.078;12.878;2022-10-16T06:42:44;96595.53;;;16.44;43.49
44079;BME280;29744;49.078;12.878;2022-10-16T06:47:44;96598.25;;;16.44;43.89
44079;BME280;29744;49.078;12.878;2022-10-16T06:52:44;96609.84;;;16.45;43.96
44079;BME280;29744;49.078;12.878;2022-10-16T06:57:47;96613.69;;;16.44;43.49
44079;BME280;29744;49.078;12.878;2022-10-16T07:02:47;96625.31;;;16.44;43.38
44079;BME280;29744;49.078;12.878;2022-10-16T07:07:48;96643.47;;;16.44;43.80
44079;BME280;29744;49.078;12.878;2022-10-16T07:12:48;96646.97;;;16.44;43.46
44079;BME280;29744;49.078;12.878;2022-10-16T07:17:48;96660.50;;;16.44;43.70
44079;BME280;29744;49.078;12.878;2022-10-16T07:22:48;96663.19;;;16.44;43.72
44079;BME280;29744;49.078;12.878;2022-10-16T07:27:49;96672.13;;;16.45;43.51
44079;BME280;29744;49.078;12.878;2022-10-16T07:32:49;96677.53;;;16.45;44.11
44079;BME280;29744;49.078;12.878;2022-10-16T07:37:49;96678.31;;;16.45;43.79
44079;BME280;29744;49.078;12.878;2022-10-16T07:42:50;96681.03;;;16.45;43.86
44079;BME280;29744;49.078;12.878;2022-10-16T07:47:50;96690.75;;;16.46;43.82
44079;BME280;29744;49.078;12.878;2022-10-16T07:52:50;96693.44;;;16.46;43.79
44079;BME280;29744;49.078;12.878;2022-10-16T07:57:50;96697.28;;;16.45;43.44
44079;BME280;29744;49.078;12.878;2022-10-16T08:02:51;96707.78;;;16.47;43.44
44079;BME280;29744;49.078;12.878;2022-10-16T08:07:51;96705.06;;;16.47;43.90
44079;BME280;29744;49.078;12.878;2022-10-16T08:12:52;96699.97;;;16.45;44.20
44079;BME280;29744;49.078;12.878;2022-10-16T08:18:00;96703.81;;;16.44;44.16
44079;BME280;29744;49.078;12.878;2022-10-16T08:23:01;96703.00;;;16.44;44.29
44079;BME280;29744;49.078;12.878;2022-10-16T08:28:06;96697.44;;;16.40;44.60
44079;BME280;29744;49.078;12.878;2022-10-16T08:33:07;96706.19;;;16.46;44.25
44079;BME280;29744;49.078;12.878;2022-10-16T08:38:07;96711.59;;;16.46;44.50
44079;BME280;29744;49.078;12.878;2022-10-16T08:48:29;96725.94;;;16.46;44.22
44079;BME280;29744;49.078;12.878;2022-10-16T08:53:40;96728.63;;;16.46;44.45
44079;BME280;29744;49.078;12.878;2022-10-16T08:58:43;96734.50;;;16.48;44.53
44079;BME280;29744;49.078;12.878;2022-10-16T09:09:40;96739.59;;;16.50;44.88
44079;BME280;29744;49.078;12.878;2022-10-16T09:25:17;96747.34;;;16.60;45.41
44079;BME280;29744;49.078;12.878;2022-10-16T09:30:21;96740.03;;;16.60;45.56
44079;BME280;29744;49.078;12.878;2022-10-16T09:35:32;96744.78;;;16.63;45.73
44079;BME280;29744;49.078;12.878;2022-10-16T09:40:38;96736.66;;;16.63;46.09
44079;BME280;29744;49.078;12.878;2022-10-16T09:45:39;96741.75;;;16.65;45.98
44079;BME280;29744;49.078;12.878;2022-10-16T09:50:39;96739.50;;;16.67;46.30
44079;BME280;29744;49.078;12.878;2022-10-16T09:55:50;96741.41;;;16.66;46.58
44079;BME280;29744;49.078;12.878;2022-10-16T10:00:52;96744.06;;;16.75;46.40
44079;BME280;29744;49.078;12.878;2022-10-16T10:05:53;96743.88;;;16.80;46.29
44079;BME280;29744;49.078;12.878;2022-10-16T10:10:53;96745.13;;;16.83;46.23
44079;BME280;29744;49.078;12.878;2022-10-16T10:15:54;96741.94;;;16.81;46.04
44079;BME280;29744;49.078;12.878;2022-10-16T10:21:02;96744.00;;;16.84;45.76
44079;BME280;29744;49.078;12.878;2022-10-16T10:31:25;96743.06;;;16.80;45.59
44079;BME280;29744;49.078;12.878;2022-10-16T10:36:32;96747.69;;;16.79;45.99
44079;BME280;29744;49.078;12.878;2022-10-16T10:41:56;96749.16;;;16.77;45.41
44079;BME280;29744;49.078;12.878;2022-10-16T10:57:53;96730.97;;;16.77;45.53
44079;BME280;29744;49.078;12.878;2022-10-16T11:08:20;96737.41;;;16.72;45.07
44079;BME280;29744;49.078;12.878;2022-10-16T11:13:44;96738.06;;;16.69;45.09
44079;BME280;29744;49.078;12.878;2022-10-16T11:24:09;96728.00;;;16.70;45.30
44079;BME280;29744;49.078;12.878;2022-10-16T11:29:25;96728.00;;;16.70;45.44
44079;BME280;29744;49.078;12.878;2022-10-16T11:35:11;96728.34;;;16.68;45.77
44079;BME280;29744;49.078;12.878;2022-10-16T11:39:54;96726.44;;;16.69;45.38
44079;BME280;29744;49.078;12.878;2022-10-16T11:55:25;96736.53;;;16.81;45.40
44079;BME280;29744;49.078;12.878;2022-10-16T12:00:36;96730.00;;;16.82;44.83
44079;BME280;29744;49.078;12.878;2022-10-16T12:16:27;96733.38;;;16.79;45.01
44079;BME280;29744;49.078;12.878;2022-10-16T12:21:30;96727.47;;;16.77;45.38
44079;BME280;29744;49.078;12.878;2022-10-16T12:26:33;96739.56;;;16.79;44.72
44079;BME280;29744;49.078;12.878;2022-10-16T12:31:47;96740.03;;;16.81;44.84
44079;BME280;29744;49.078;12.878;2022-10-16T12:36:49;96733.50;;;16.82;44.92
44079;BME280;29744;49.078;12.878;2022-10-16T12:42:04;96728.28;;;16.77;44.59
44079;BME280;29744;49.078;12.878;2022-10-16T12:47:20;96734.81;;;16.76;44.96
44079;BME280;29744;49.078;12.878;2022-10-16T12:52:35;96738.97;;;16.73;44.66
44079;BME280;29744;49.078;12.878;2022-10-16T13:13:57;96735.69;;;16.68;44.90
44079;BME280;29744;49.078;12.878;2022-10-16T13:35:22;96751.31;;;16.62;45.13
44079;BME280;29744;49.078;12.878;2022-10-16T13:40:24;96752.44;;;16.61;44.96
44079;BME280;29744;49.078;12.878;2022-10-16T13:45:25;96762.16;;;16.62;45.03
44079;BME280;29744;49.078;12.878;2022-10-16T13:50:25;96775.69;;;16.62;44.99
44079;BME280;29744;49.078;12.878;2022-10-16T13:55:33;96773.78;;;16.63;45.10
44079;BME280;29744;49.078;12.878;2022-10-16T14:00:33;96783.81;;;16.62;45.03
44079;BME280;29744;49.078;12.878;2022-10-16T14:05:34;96778.22;;;16.67;44.86
44079;BME280;29744;49.078;12.878;2022-10-16T14:10:34;96794.59;;;16.71;44.57
44079;BME280;29744;49.078;12.878;2022-10-16T14:15:36;96793.94;;;16.74;44.68
44079;BME280;29744;49.078;12.878;2022-10-16T14:20:36;96800.94;;;16.75;44.74
44079;BME280;29744;49.078;12.878;2022-10-16T14:25:37;96797.91;;;16.77;45.12
44079;BME280;29744;49.078;12.878;2022-10-16T14:30:37;96789.78;;;16.77;44.44
44079;BME280;29744;49.078;12.878;2022-10-16T14:35:38;96801.06;;;16.79;44.65
44079;BME280;29744;49.078;12.878;2022-10-16T14:40:47;96795.66;;;16.79;44.61
44079;BME280;29744;49.078;12.878;2022-10-16T14:45:53;96797.56;;;16.78;44.81
44079;BME280;29744;49.078;12.878;2022-10-16T14:50:54;96800.28;;;16.78;44.72
44079;BME280;29744;49.078;12.878;2022-10-16T14:55:54;96808.72;;;16.77;44.66
44079;BME280;29744;49.078;12.878;2022-10-16T15:00:55;96804.91;;;16.78;44.86
44079;BME280;29744;49.078;12.878;2022-10-16T15:05:56;96813.03;;;16.78;44.53
44079;BME280;29744;49.078;12.878;2022-10-16T15:10:56;96815.75;;;16.78;44.32
44079;BME280;29744;49.078;12.878;2022-10-16T15:15:56;96815.75;;;16.78;44.59
44079;BME280;29744;49.078;12.878;2022-10-16T15:20:58;96819.25;;;16.78;44.61
44079;BME280;29744;49.078;12.878;2022-10-16T15:25:58;96830.06;;;16.78;44.55
44079;BME280;29744;49.078;12.878;2022-10-16T15:30:59;96829.28;;;16.78;44.80
44079;BME280;29744;49.078;12.878;2022-10-16T15:36:00;96828.16;;;16.79;44.42
44079;BME280;29744;49.078;12.878;2022-10-16T15:41:00;96829.28;;;16.78;44.46
44079;BME280;29744;49.078;12.878;2022-10-16T15:46:06;96833.56;;;16.79;44.41
44079;BME280;29744;49.078;12.878;2022-10-16T15:51:11;96829.28;;;16.78;44.60
44079;BME280;29744;49.078;12.878;2022-10-16T15:56:12;96837.41;;;16.78;44.45
44079;BME280;29744;49.078;12.878;2022-10-16T16:01:12;96837.41;;;16.78;44.58
44079;BME280;29744;49.078;12.878;2022-10-16T16:06:13;96835.81;;;16.77;44.69
44079;BME280;29744;49.078;12.878;2022-10-16T16:11:15;96842.81;;;16.78;44.60
44079;BME280;29744;49.078;12.878;2022-10-16T16:16:17;96848.25;;;16.78;44.71
44079;BME280;29744;49.078;12.878;2022-10-16T16:21:17;96854.78;;;16.77;44.75
44079;BME280;29744;49.078;12.878;2022-10-16T16:26:26;96856.69;;;16.76;44.36
44079;BME280;29744;49.078;12.878;2022-10-16T16:31:28;96867.53;;;16.76;44.73
44079;BME280;29744;49.078;12.878;2022-10-16T16:36:28;96867.84;;;16.75;44.54
44079;BME280;29744;49.078;12.878;2022-10-16T16:41:29;96871.34;;;16.75;44.81
44079;BME280;29744;49.078;12.878;2022-10-16T16:46:31;96874.06;;;16.75;44.62
44079;BME280;29744;49.078;12.878;2022-10-16T16:51:33;96875.97;;;16.75;44.45
44079;BME280;29744;49.078;12.878;2022-10-16T16:56:34;96889.53;;;16.75;44.60
44079;BME280;29744;49.078;12.878;2022-10-16T17:01:34;96909.28;;;16.75;44.47
44079;BME280;29744;49.078;12.878;2022-10-16T17:06:35;96913.09;;;16.74;44.52
44079;BME280;29744;49.078;12.878;2022-10-16T17:11:35;96918.53;;;16.74;44.50
44079;BME280;29744;49.078;12.878;2022-10-16T17:16:36;96919.31;;;16.75;44.55
44079;BME280;29744;49.078;12.878;2022-10-16T17:21:37;96927.44;;;16.75;44.50
44079;BME280;29744;49.078;12.878;2022-10-16T17:26:38;96933.97;;;16.73;44.54
44079;BME280;29744;49.078;12.878;2022-10-16T17:31:40;96940.19;;;16.74;44.42
44079;BME280;29744;49.078;12.878;2022-10-16T17:36:41;96940.97;;;16.75;44.26
44079;BME280;29744;49.078;12.878;2022-10-16T17:41:46;96940.19;;;16.74;44.35
44079;BME280;29744;49.078;12.878;2022-10-16T17:46:49;96949.09;;;16.75;44.29
44079;BME280;29744;49.078;12.878;2022-10-16T17:51:51;96954.53;;;16.75;44.56
44079;BME280;29744;49.078;12.878;2022-10-16T17:56:52;96978.09;;;16.74;44.40
44079;BME280;29744;49.078;12.878;2022-10-16T18:01:52;96976.50;;;16.73;44.54
44079;BME280;29744;49.078;12.878;2022-10-16T18:06:52;96974.59;;;16.73;44.13
44079;BME280;29744;49.078;12.878;2022-10-16T18:11:55;96983.53;;;16.74;44.39
44079;BME280;29744;49.078;12.878;2022-10-16T18:17:01;96983.84;;;16.72;44.33
44079;BME280;29744;49.078;12.878;2022-10-16T18:22:01;96990.06;;;16.73;44.37
44079;BME280;29744;49.078;12.878;2022-10-16T18:27:02;96990.38;;;16.71;44.54
44079;BME280;29744;49.078;12.878;2022-10-16T18:32:02;97004.72;;;16.72;44.17
44079;BME280;29744;49.078;12.878;2022-10-16T18:37:02;97002.81;;;16.72;44.29
44079;BME280;29744;49.078;12.878;2022-10-16T18:42:03;97001.22;;;16.71;44.31
44079;BME280;29744;49.078;12.878;2022-10-16T18:47:03;97003.13;;;16.71;44.39
44079;BME280;29744;49.078;12.878;2022-10-16T18:52:04;97004.88;;;16.67;44.47
44079;BME280;29744;49.078;12.878;2022-10-16T18:57:05;97002.97;;;16.67;44.53
44079;BME280;29744;49.078;12.878;2022-10-16T19:02:05;97016.19;;;16.69;44.67
44079;BME280;29744;49.078;12.878;2022-10-16T19:07:06;97011.56;;;16.69;44.24
44079;BME280;29744;49.078;12.878;2022-10-16T19:12:06;97018.91;;;16.69;44.66
44079;BME280;29744;49.078;12.878;2022-10-16T19:17:07;97024.31;;;16.69;44.50
44079;BME280;29744;49.078;12.878;2022-10-16T19:22:07;97029.75;;;16.69;44.08
44079;BME280;29744;49.078;12.878;2022-10-16T19:27:13;97046.78;;;16.69;44.31
44079;BME280;29744;49.078;12.878;2022-10-16T19:32:13;97048.38;;;16.70;44.55
44079;BME280;29744;49.078;12.878;2022-10-16T19:37:13;97047.56;;;16.70;44.32
44079;BME280;29744;49.078;12.878;2022-10-16T19:42:14;97039.78;;;16.68;44.50
44079;BME280;29744;49.078;12.878;2022-10-16T19:47:14;97042.16;;;16.70;44.53
44079;BME280;29744;49.078;12.878;2022-10-16T19:52:14;97047.44;;;16.66;44.52
44079;BME280;29744;49.078;12.878;2022-10-16T19:57:16;97052.84;;;16.66;44.37
44079;BME280;29744;49.078;12.878;2022-10-16T20:02:16;97055.22;;;16.68;44.64
44079;BME280;29744;49.078;12.878;2022-10-16T20:07:16;97060.66;;;16.68;44.47
44079;BME280;29744;49.078;12.878;2022-10-16T20:12:17;97068.44;;;16.69;44.48
44079;BME280;29744;49.078;12.878;2022-10-16T20:17:17;97073.88;;;16.69;44.62
44079;BME280;29744;49.078;12.878;2022-10-16T20:22:17;97078.47;;;16.69;44.43
44079;BME280;29744;49.078;12.878;2022-10-16T20:27:18;97079.28;;;16.69;44.29
44079;BME280;29744;49.078;12.878;2022-10-16T20:32:18;97082.00;;;16.69;44.55
44079;BME280;29744;49.078;12.878;2022-10-16T20:37:18;97080.72;;;16.67;44.31
44079;BME280;29744;49.078;12.878;2022-10-16T20:42:18;97084.22;;;16.67;44.29
44079;BME280;29744;49.078;12.878;2022-10-16T20:47:19;97084.88;;;16.64;44.52
44079;BME280;29744;49.078;12.878;2022-10-16T20:52:19;97082.94;;;16.65;44.59
44079;BME280;29744;49.078;12.878;2022-10-16T20:57:19;97089.63;;;16.67;44.49
44079;BME280;29744;49.078;12.878;2022-10-16T21:02:21;97094.25;;;16.67;44.05
44079;BME280;29744;49.078;12.878;2022-10-16T21:07:21;97100.63;;;16.62;44.63
44079;BME280;29744;49.078;12.878;2022-10-16T21:12:23;97086.63;;;16.60;44.16
44079;BME280;29744;49.078;12.878;2022-10-16T21:17:23;97092.50;;;16.62;44.15
44079;BME280;29744;49.078;12.878;2022-10-16T21:22:28;97097.28;;;16.65;44.39
44079;BME280;29744;49.078;12.878;2022-10-16T21:27:28;97097.28;;;16.65;44.54
44079;BME280;29744;49.078;12.878;2022-10-16T21:32:28;97101.13;;;16.64;44.36
44079;BME280;29744;49.078;12.878;2022-10-16T21:37:29;97104.47;;;16.61;44.44
44079;BME280;29744;49.078;12.878;2022-10-16T21:42:29;97107.66;;;16.63;44.29
44079;BME280;29744;49.078;12.878;2022-10-16T21:47:29;97107.31;;;16.65;43.99
44079;BME280;29744;49.078;12.878;2022-10-16T21:52:30;97109.88;;;16.61;44.36
44079;BME280;29744;49.078;12.878;2022-10-16T21:57:30;97106.84;;;16.63;44.40
44079;BME280;29744;49.078;12.878;2022-10-16T22:02:30;97104.47;;;16.61;44.47
44079;BME280;29744;49.078;12.878;2022-10-16T22:07:31;97093.47;;;16.58;44.48
44079;BME280;29744;49.078;12.878;2022-10-16T22:12:31;97106.69;;;16.59;44.46
44079;BME280;29744;49.078;12.878;2022-10-16T22:17:31;97107.81;;;16.58;44.82
44079;BME280;29744;49.078;12.878;2022-10-16T22:22:32;97104.00;;;16.59;44.79
44079;BME280;29744;49.078;12.878;2022-10-16T22:27:32;97108.59;;;16.59;44.55
44079;BME280;29744;49.078;12.878;2022-10-16T22:32:32;97104.78;;;16.60;44.54
44079;BME280;29744;49.078;12.878;2022-10-16T22:37:32;97104.47;;;16.61;44.44
44079;BME280;29744;49.078;12.878;2022-10-16T22:42:33;97100.47;;;16.59;44.37
44079;BME280;29744;49.078;12.878;2022-10-16T22:47:33;97095.72;;;16.56;44.39
44079;BME280;29744;49.078;12.878;2022-10-16T22:52:33;97097.13;;;16.53;44.18
44079;BME280;29744;49.078;12.878;2022-10-16T22:57:35;97104.75;;;16.51;44.87
44079;BME280;29744;49.078;12.878;2022-10-16T23:02:35;97101.59;;;16.49;44.57
44079;BME280;29744;49.078;12.878;2022-10-16T23:07:36;97103.81;;;16.47;44.46
44079;BME280;29744;49.078;12.878;2022-10-16T23:12:36;97100.31;;;16.47;44.45
44079;BME280;29744;49.078;12.878;2022-10-16T23:17:37;97104.75;;;16.51;44.41
44079;BME280;29744;49.078;12.878;2022-10-16T23:22:37;97108.44;;;16.55;44.58
44079;BME280;29744;49.078;12.878;2022-10-16T23:27:37;97110.19;;;16.51;44.67
44079;BME280;29744;49.078;12.878;2022-10-16T23:32:39;97124.03;;;16.50;44.76
44079;BME280;29744;49.078;12.878;2022-10-16T23:37:40;97120.69;;;16.53;44.51
44079;BME280;29744;49.078;12.878;2022-10-16T23:42:40;97124.03;;;16.50;44.50
44079;BME280;29744;49.078;12.878;2022-10-16T23:47:40;97136.31;;;16.47;44.85
44079;BME280;29744;49.078;12.878;2022-10-16T23:52:40;97133.13;;;16.45;44.96
44079;BME280;29744;49.078;12.878;2022-10-16T23:57:41;97122.59;;;16.44;44.84
